Time;durP1;ratioP1;P1;durP2;ratioP2;P2;SDS_P1;SDS_P2;PMS_P1;PMS_P2;Temp;Humidity;BMP_temperature;BMP_pressure;BME280_temperature;BME280_humidity;BME280_pressure;Samples;Min_cycle;Max_cycle;Signal;HPM_P1;HPM_P2
2023/06/06 00:01:29;;;;;;;10.65;7.13;;;15.90;99.90;;;;;;5054123;28;20036;-63
2023/06/06 00:03:56;;;;;;;12.05;7.53;;;15.80;99.90;;;;;;5044974;28;20037;-63
2023/06/06 00:06:24;;;;;;;11.07;7.30;;;15.70;99.90;;;;;;5047092;28;21930;-62
2023/06/06 00:08:52;;;;;;;11.27;7.20;;;15.80;99.90;;;;;;5051772;28;20407;-63
2023/06/06 00:11:18;;;;;;;15.45;7.32;;;15.60;99.90;;;;;;5049341;28;20120;-63
2023/06/06 00:13:49;;;;;;;13.40;7.07;;;15.60;99.90;;;;;;5050264;28;20025;-63
2023/06/06 00:16:15;;;;;;;11.98;7.70;;;15.60;99.90;;;;;;5055558;28;20036;-63
2023/06/06 00:18:41;;;;;;;12.00;7.55;;;15.60;99.90;;;;;;5052949;28;20086;-63
2023/06/06 00:21:08;;;;;;;11.00;7.65;;;15.50;99.90;;;;;;5051147;28;20045;-62
2023/06/06 00:23:34;;;;;;;11.73;7.40;;;15.60;99.90;;;;;;5054162;28;20033;-62
2023/06/06 00:26:00;;;;;;;12.77;7.88;;;15.50;99.90;;;;;;5052645;28;20037;-63
2023/06/06 00:28:26;;;;;;;12.80;7.63;;;15.40;99.90;;;;;;5051440;28;20025;-62
2023/06/06 00:30:51;;;;;;;11.10;8.30;;;15.60;99.90;;;;;;5056138;28;20045;-63
2023/06/06 00:33:17;;;;;;;14.50;7.90;;;15.30;99.90;;;;;;5047251;28;20086;-63
2023/06/06 00:35:42;;;;;;;11.38;8.07;;;15.30;99.90;;;;;;5052777;28;20055;-63
2023/06/06 00:38:08;;;;;;;12.65;7.75;;;15.30;99.90;;;;;;5046652;28;20026;-62
2023/06/06 00:40:33;;;;;;;12.68;7.53;;;15.40;99.90;;;;;;5058989;28;20039;-63
2023/06/06 00:42:59;;;;;;;15.02;7.60;;;15.10;99.90;;;;;;5051535;28;20719;-63
2023/06/06 00:45:25;;;;;;;14.43;7.95;;;15.80;99.90;;;;;;5052593;28;20051;-62
2023/06/06 00:47:51;;;;;;;13.43;8.02;;;14.90;99.90;;;;;;5051620;28;20656;-63
2023/06/06 00:50:18;;;;;;;12.82;7.93;;;15.10;99.90;;;;;;5055477;28;20036;-63
2023/06/06 00:52:46;;;;;;;13.65;8.18;;;15.00;99.90;;;;;;5055461;28;20106;-62
2023/06/06 00:55:14;;;;;;;14.65;8.43;;;15.00;99.90;;;;;;5051582;28;20033;-64
2023/06/06 00:57:43;;;;;;;12.52;8.60;;;14.90;99.90;;;;;;5057588;28;20040;-63
2023/06/06 01:00:10;;;;;;;18.85;8.35;;;15.00;99.90;;;;;;5051832;28;20435;-62
2023/06/06 01:02:37;;;;;;;11.65;8.35;;;14.90;99.90;;;;;;5055550;28;20040;-63
2023/06/06 01:05:06;;;;;;;17.05;8.13;;;14.80;99.90;;;;;;5053106;28;20066;-61
2023/06/06 01:07:32;;;;;;;11.38;8.50;;;14.80;99.90;;;;;;5054204;28;20204;-62
2023/06/06 01:09:58;;;;;;;16.75;8.52;;;14.70;99.90;;;;;;5049269;28;20527;-63
2023/06/06 01:12:36;;;;;;;12.70;8.82;;;14.60;99.90;;;;;;5050737;28;20041;-64
2023/06/06 01:15:22;;;;;;;13.23;8.30;;;14.60;99.90;;;;;;5051760;28;20658;-61
2023/06/06 01:17:49;;;;;;;13.23;8.68;;;14.70;99.90;;;;;;5053695;28;20048;-62
2023/06/06 01:20:15;;;;;;;14.13;8.60;;;14.50;99.90;;;;;;5049319;28;20037;-62
2023/06/06 01:22:43;;;;;;;13.90;8.82;;;14.70;99.90;;;;;;5055140;28;20523;-63
2023/06/06 01:25:09;;;;;;;12.48;8.65;;;14.80;99.90;;;;;;5049150;28;20041;-62
2023/06/06 01:27:35;;;;;;;13.95;8.65;;;14.60;99.90;;;;;;5061155;28;20606;-63
2023/06/06 01:30:05;;;;;;;14.27;8.77;;;14.60;99.90;;;;;;5054082;28;20048;-63
2023/06/06 01:32:30;;;;;;;13.55;8.48;;;14.50;99.90;;;;;;5054668;28;20163;-63
2023/06/06 01:35:07;;;;;;;13.13;9.30;;;14.60;99.90;;;;;;5052260;28;20494;-63
2023/06/06 01:37:45;;;;;;;15.20;9.35;;;14.50;99.90;;;;;;5049950;28;20519;-64
2023/06/06 01:40:13;;;;;;;14.32;8.82;;;14.60;99.90;;;;;;5053411;28;20071;-62
2023/06/06 01:42:44;;;;;;;14.40;9.10;;;14.60;99.90;;;;;;5055627;28;20037;-63
2023/06/06 01:45:11;;;;;;;15.82;9.43;;;14.30;99.90;;;;;;5052396;28;20075;-62
2023/06/06 01:47:38;;;;;;;17.17;9.65;;;14.10;99.90;;;;;;5053768;28;20043;-64
2023/06/06 01:50:07;;;;;;;16.38;9.57;;;14.20;99.90;;;;;;5057030;28;20067;-62
2023/06/06 01:52:37;;;;;;;14.95;9.40;;;14.40;99.90;;;;;;5052239;28;20053;-62
2023/06/06 01:55:04;;;;;;;14.45;8.50;;;14.40;99.90;;;;;;5053242;28;20037;-62
2023/06/06 01:57:29;;;;;;;15.15;9.65;;;14.20;99.90;;;;;;5052161;28;20045;-63
2023/06/06 01:59:55;;;;;;;16.48;9.15;;;14.00;99.90;;;;;;5055223;28;20032;-63
2023/06/06 02:02:21;;;;;;;13.13;9.25;;;14.00;99.90;;;;;;5046710;28;20491;-62
2023/06/06 02:04:48;;;;;;;13.68;9.93;;;13.90;99.90;;;;;;5055224;28;20044;-63
2023/06/06 02:07:15;;;;;;;14.50;9.90;;;13.80;99.90;;;;;;5050208;28;20040;-62
2023/06/06 02:09:44;;;;;;;17.60;10.15;;;13.80;99.90;;;;;;5052326;28;20060;-63
2023/06/06 02:12:10;;;;;;;16.38;9.60;;;13.60;99.90;;;;;;5051478;28;20120;-62
2023/06/06 02:14:36;;;;;;;15.32;10.15;;;13.70;99.90;;;;;;5053078;28;20044;-63
2023/06/06 02:17:03;;;;;;;16.08;9.63;;;13.60;99.90;;;;;;5055260;28;20809;-62
2023/06/06 02:19:32;;;;;;;17.33;10.27;;;13.70;99.90;;;;;;5052979;28;20102;-62
2023/06/06 02:21:57;;;;;;;14.55;10.40;;;13.80;99.90;;;;;;5053197;28;20531;-62
2023/06/06 02:24:26;;;;;;;13.75;9.65;;;13.60;99.90;;;;;;5054352;28;20048;-63
2023/06/06 02:26:53;;;;;;;14.30;10.60;;;13.60;99.90;;;;;;5052418;28;20142;-63
2023/06/06 02:29:25;;;;;;;15.32;9.70;;;13.50;99.90;;;;;;5054557;28;20040;-62
2023/06/06 02:31:51;;;;;;;14.40;10.35;;;13.60;99.90;;;;;;5054526;28;20036;-63
2023/06/06 02:34:16;;;;;;;20.52;10.75;;;13.40;99.90;;;;;;5052557;28;20024;-62
2023/06/06 02:36:42;;;;;;;18.75;10.18;;;13.50;99.90;;;;;;5055090;28;20405;-62
2023/06/06 02:39:08;;;;;;;16.63;10.38;;;13.40;99.90;;;;;;5052179;28;20041;-62
2023/06/06 02:41:34;;;;;;;15.68;10.18;;;13.40;99.90;;;;;;5056299;28;20098;-63
2023/06/06 02:44:00;;;;;;;14.32;10.00;;;13.30;99.90;;;;;;5053266;28;20435;-63
2023/06/06 02:46:25;;;;;;;17.33;11.15;;;13.30;99.90;;;;;;5054350;28;20468;-63
2023/06/06 02:48:51;;;;;;;13.82;10.05;;;13.20;99.90;;;;;;5050780;28;20072;-63
2023/06/06 02:51:19;;;;;;;17.92;10.57;;;13.30;99.90;;;;;;5056845;28;20127;-62
2023/06/06 02:53:45;;;;;;;15.93;10.80;;;13.20;99.90;;;;;;5046689;28;20037;-62
2023/06/06 02:56:12;;;;;;;18.13;10.80;;;13.20;99.90;;;;;;5056225;28;20032;-62
2023/06/06 02:58:38;;;;;;;14.73;9.57;;;13.20;99.90;;;;;;5052839;28;20047;-62
2023/06/06 03:01:05;;;;;;;18.55;10.77;;;13.30;99.90;;;;;;5051155;28;20529;-62
2023/06/06 03:03:31;;;;;;;18.63;10.43;;;13.30;99.90;;;;;;5055151;28;20392;-62
2023/06/06 03:05:58;;;;;;;16.25;11.02;;;13.20;99.90;;;;;;5055756;28;20025;-63
2023/06/06 03:08:24;;;;;;;14.98;11.00;;;13.10;99.90;;;;;;5050732;28;20033;-62
2023/06/06 03:10:51;;;;;;;20.25;11.00;;;13.30;99.90;;;;;;5051400;28;20041;-64
2023/06/06 03:13:17;;;;;;;14.32;10.45;;;13.10;99.90;;;;;;5055081;28;20056;-62
2023/06/06 03:15:46;;;;;;;20.65;11.18;;;13.20;99.90;;;;;;5050014;28;20068;-62
2023/06/06 03:18:16;;;;;;;17.13;10.82;;;13.30;99.90;;;;;;5053085;28;20120;-63
2023/06/06 03:20:45;;;;;;;15.57;10.65;;;13.30;99.90;;;;;;5046787;28;20525;-63
2023/06/06 03:23:12;;;;;;;17.70;10.75;;;13.20;99.90;;;;;;5046452;28;20040;-64
2023/06/06 03:25:43;;;;;;;16.25;10.63;;;13.20;99.90;;;;;;5045629;28;20037;-62
2023/06/06 03:28:09;;;;;;;17.17;10.27;;;13.30;99.90;;;;;;5046417;28;20033;-62
2023/06/06 03:30:35;;;;;;;17.63;10.68;;;13.20;99.90;;;;;;5052033;28;20036;-62
2023/06/06 03:33:03;;;;;;;17.35;10.63;;;13.20;99.90;;;;;;5044264;28;20040;-63
2023/06/06 03:35:30;;;;;;;16.45;11.02;;;13.10;99.90;;;;;;5056067;28;20132;-64
2023/06/06 03:37:57;;;;;;;16.52;10.75;;;13.20;99.90;;;;;;5054337;28;20042;-62
2023/06/06 03:40:23;;;;;;;17.50;10.63;;;13.00;99.90;;;;;;5054356;28;20041;-62
2023/06/06 03:42:52;;;;;;;17.45;10.70;;;12.90;99.90;;;;;;5056775;28;20021;-63
2023/06/06 03:45:18;;;;;;;15.10;10.73;;;12.90;99.90;;;;;;5053156;28;20037;-62
2023/06/06 03:47:45;;;;;;;16.52;10.68;;;12.90;99.90;;;;;;5053388;28;20036;-62
2023/06/06 03:50:11;;;;;;;20.27;11.60;;;12.80;99.90;;;;;;5050456;28;20039;-64
2023/06/06 03:52:37;;;;;;;21.30;11.30;;;12.60;99.90;;;;;;5049582;28;20129;-63
2023/06/06 03:55:03;;;;;;;16.65;10.95;;;12.70;99.90;;;;;;5044507;28;20037;-62
2023/06/06 03:57:29;;;;;;;16.35;10.73;;;12.90;99.90;;;;;;5047535;28;20393;-62
2023/06/06 03:59:55;;;;;;;17.75;10.30;;;12.90;99.90;;;;;;5049214;28;20025;-62
2023/06/06 04:02:21;;;;;;;16.20;11.25;;;12.80;99.90;;;;;;5049737;28;20081;-62
2023/06/06 04:04:51;;;;;;;21.55;11.27;;;13.10;99.90;;;;;;5049175;28;20032;-62
2023/06/06 04:07:18;;;;;;;14.70;10.35;;;13.10;99.90;;;;;;5052315;28;20033;-63
2023/06/06 04:09:43;;;;;;;17.67;10.25;;;13.10;99.90;;;;;;5053450;28;20532;-62
2023/06/06 04:12:10;;;;;;;15.60;11.05;;;13.00;99.90;;;;;;5052641;28;20044;-62
2023/06/06 04:14:35;;;;;;;15.75;11.02;;;12.80;99.90;;;;;;5057015;28;20036;-64
2023/06/06 04:17:04;;;;;;;16.77;11.07;;;12.90;99.90;;;;;;5054187;28;20055;-62
2023/06/06 04:19:30;;;;;;;18.23;11.40;;;12.90;99.90;;;;;;5050134;28;20028;-62
2023/06/06 04:21:56;;;;;;;13.55;10.10;;;13.00;99.90;;;;;;5055186;28;20676;-63
2023/06/06 04:24:22;;;;;;;15.25;10.90;;;13.10;99.90;;;;;;5057272;28;20388;-63
2023/06/06 04:26:48;;;;;;;23.98;10.63;;;12.90;99.90;;;;;;5061888;28;20515;-62
2023/06/06 04:29:14;;;;;;;18.73;11.15;;;12.90;99.90;;;;;;5059096;28;20439;-62
2023/06/06 04:31:44;;;;;;;16.40;11.15;;;12.90;99.90;;;;;;5053071;28;20041;-62
2023/06/06 04:34:10;;;;;;;16.80;11.13;;;13.10;99.90;;;;;;5054285;28;20052;-62
2023/06/06 04:36:40;;;;;;;17.02;11.60;;;13.20;99.90;;;;;;5057534;28;20041;-63
2023/06/06 04:39:06;;;;;;;19.67;10.48;;;13.60;99.90;;;;;;5055013;28;20430;-62
2023/06/06 04:41:33;;;;;;;17.08;11.73;;;13.20;99.90;;;;;;5055997;28;20044;-62
2023/06/06 04:44:01;;;;;;;17.08;11.43;;;13.10;99.90;;;;;;5053214;28;20185;-63
2023/06/06 04:46:29;;;;;;;21.02;11.40;;;13.00;99.90;;;;;;5053454;28;20051;-64
2023/06/06 04:48:56;;;;;;;16.92;11.27;;;12.90;99.90;;;;;;5064711;28;20028;-65
2023/06/06 04:51:30;;;;;;;19.13;11.32;;;13.20;99.90;;;;;;5059057;28;20126;-64
2023/06/06 04:54:01;;;;;;;20.38;10.82;;;13.40;99.90;;;;;;5060784;28;20095;-65
2023/06/06 04:56:30;;;;;;;19.20;11.27;;;13.40;99.90;;;;;;5064197;28;20492;-65
2023/06/06 04:58:56;;;;;;;18.70;11.25;;;13.40;99.90;;;;;;5065260;28;20123;-64
2023/06/06 05:01:23;;;;;;;19.05;11.55;;;13.40;99.90;;;;;;5056140;28;20055;-64
2023/06/06 05:03:49;;;;;;;16.42;11.18;;;13.60;99.90;;;;;;5060595;28;20533;-64
2023/06/06 05:06:15;;;;;;;24.98;11.20;;;13.40;99.90;;;;;;5058385;28;20028;-66
2023/06/06 05:08:44;;;;;;;20.13;11.98;;;13.40;99.90;;;;;;5058098;28;20032;-57
2023/06/06 05:11:13;;;;;;;23.33;12.18;;;13.60;99.90;;;;;;5061128;28;20028;-57
2023/06/06 05:13:39;;;;;;;22.92;11.73;;;13.50;99.90;;;;;;5062920;28;20426;-57
2023/06/06 05:16:07;;;;;;;20.08;11.88;;;13.70;99.90;;;;;;5059479;28;20097;-57
2023/06/06 05:18:33;;;;;;;20.00;12.15;;;13.80;99.90;;;;;;5056438;28;20067;-57
2023/06/06 05:21:02;;;;;;;19.50;10.82;;;13.90;99.90;;;;;;5057516;28;20064;-57
2023/06/06 05:23:31;;;;;;;19.30;10.98;;;14.00;99.90;;;;;;5057930;28;20033;-57
2023/06/06 05:25:58;;;;;;;18.80;11.77;;;13.80;99.90;;;;;;5055375;28;21081;-57
2023/06/06 05:28:28;;;;;;;20.23;11.93;;;13.70;99.90;;;;;;5060926;28;20504;-57
2023/06/06 05:30:56;;;;;;;22.75;11.40;;;13.80;99.90;;;;;;5049859;28;20328;-57
2023/06/06 05:33:25;;;;;;;18.50;10.82;;;14.00;99.90;;;;;;5046924;28;20429;-57
2023/06/06 05:35:53;;;;;;;20.77;11.68;;;13.90;99.90;;;;;;5055864;28;20066;-57
2023/06/06 05:38:19;;;;;;;19.25;12.02;;;13.90;99.90;;;;;;5061801;28;20767;-57
2023/06/06 05:40:45;;;;;;;17.50;11.40;;;13.90;99.90;;;;;;5064137;28;20081;-57
2023/06/06 05:43:11;;;;;;;21.05;12.25;;;14.10;99.90;;;;;;5061979;28;20119;-57
2023/06/06 05:45:37;;;;;;;23.00;11.10;;;14.30;99.90;;;;;;5062310;28;20619;-58
2023/06/06 05:48:03;;;;;;;19.38;11.52;;;14.10;99.90;;;;;;5059797;28;20127;-57
2023/06/06 05:50:29;;;;;;;20.02;11.20;;;14.30;99.90;;;;;;5060304;28;20120;-57
2023/06/06 05:52:54;;;;;;;19.48;10.98;;;14.30;99.90;;;;;;5056793;28;20166;-56
2023/06/06 05:55:31;;;;;;;22.33;11.77;;;14.50;99.90;;;;;;5061014;28;20049;-57
2023/06/06 05:57:58;;;;;;;18.60;10.63;;;14.50;99.90;;;;;;5064334;28;20044;-57
2023/06/06 06:00:25;;;;;;;19.40;11.93;;;14.40;99.90;;;;;;5061155;28;20337;-57
2023/06/06 06:02:52;;;;;;;21.05;11.50;;;14.50;99.90;;;;;;5058814;28;20060;-57
2023/06/06 06:05:18;;;;;;;24.15;12.10;;;14.50;99.90;;;;;;5055648;28;20453;-57
2023/06/06 06:07:44;;;;;;;19.65;11.43;;;14.70;99.90;;;;;;5066897;28;20116;-57
2023/06/06 06:10:10;;;;;;;23.35;12.15;;;14.70;99.90;;;;;;5061416;28;20619;-57
2023/06/06 06:12:36;;;;;;;17.88;11.15;;;14.60;99.90;;;;;;5062966;28;20040;-57
2023/06/06 06:15:02;;;;;;;18.13;11.02;;;14.60;99.90;;;;;;5065446;28;20036;-58
2023/06/06 06:17:28;;;;;;;16.42;11.05;;;14.70;99.90;;;;;;5059907;28;20041;-57
2023/06/06 06:19:53;;;;;;;17.02;11.38;;;14.80;99.90;;;;;;5061208;28;20085;-57
2023/06/06 06:22:19;;;;;;;17.23;11.02;;;15.10;99.90;;;;;;5064468;28;20362;-57
2023/06/06 06:24:44;;;;;;;20.85;11.90;;;14.80;99.90;;;;;;5065653;28;20366;-57
2023/06/06 06:27:10;;;;;;;20.88;11.77;;;14.80;99.90;;;;;;5066249;28;20024;-57
2023/06/06 06:29:36;;;;;;;22.30;11.73;;;14.90;99.90;;;;;;5066506;28;20040;-57
2023/06/06 06:32:02;;;;;;;20.05;12.15;;;15.00;99.90;;;;;;5065781;28;20036;-57
2023/06/06 06:34:27;;;;;;;24.60;11.65;;;15.30;99.90;;;;;;5052496;28;20044;-57
2023/06/06 06:36:53;;;;;;;18.38;11.68;;;15.20;99.90;;;;;;5066291;28;20106;-57
2023/06/06 06:39:19;;;;;;;18.10;10.27;;;15.20;99.90;;;;;;5056425;28;20040;-57
2023/06/06 06:41:47;;;;;;;18.38;12.30;;;15.10;99.90;;;;;;5048554;28;20096;-57
2023/06/06 06:44:13;;;;;;;19.10;11.32;;;15.00;99.90;;;;;;5049747;28;20037;-56
2023/06/06 06:46:38;;;;;;;25.30;12.65;;;15.10;99.90;;;;;;5065274;28;20636;-56
2023/06/06 06:49:15;;;;;;;20.00;11.75;;;15.40;99.90;;;;;;5058468;28;20037;-57
2023/06/06 06:51:41;;;;;;;20.67;12.20;;;15.40;99.90;;;;;;5058530;28;20028;-57
2023/06/06 06:54:10;;;;;;;22.45;12.30;;;15.50;99.90;;;;;;5066003;28;20075;-57
2023/06/06 06:56:36;;;;;;;28.95;13.02;;;15.60;99.90;;;;;;5056469;28;20458;-57
2023/06/06 06:59:03;;;;;;;25.60;12.55;;;15.30;99.90;;;;;;5066081;28;20395;-57
2023/06/06 07:01:29;;;;;;;20.08;12.85;;;15.50;99.90;;;;;;5054897;28;20033;-57
2023/06/06 07:03:55;;;;;;;21.50;12.40;;;15.60;99.90;;;;;;5046768;28;20060;-57
2023/06/06 07:06:22;;;;;;;22.70;12.57;;;15.70;99.90;;;;;;5061234;28;20056;-57
2023/06/06 07:08:49;;;;;;;22.05;12.27;;;15.80;99.90;;;;;;5059702;28;20118;-57
2023/06/06 07:11:15;;;;;;;22.83;11.77;;;15.70;99.90;;;;;;5061569;28;20410;-57
2023/06/06 07:13:40;;;;;;;23.17;12.30;;;15.90;99.90;;;;;;5053253;28;20025;-57
2023/06/06 07:16:08;;;;;;;21.15;12.68;;;15.90;99.90;;;;;;5053416;28;20035;-57
2023/06/06 07:18:34;;;;;;;20.33;12.77;;;15.90;99.90;;;;;;5055194;28;20029;-57
2023/06/06 07:21:00;;;;;;;23.05;12.98;;;16.10;99.90;;;;;;5065456;28;20032;-57
2023/06/06 07:23:25;;;;;;;23.88;13.52;;;16.20;99.90;;;;;;5054880;28;20033;-57
2023/06/06 07:25:52;;;;;;;27.42;13.05;;;16.30;99.90;;;;;;5045498;28;20025;-57
2023/06/06 07:28:18;;;;;;;21.73;12.15;;;16.20;99.90;;;;;;5045548;28;20037;-57
2023/06/06 07:30:44;;;;;;;21.45;12.35;;;16.40;99.90;;;;;;5060887;28;20504;-57
2023/06/06 07:33:10;;;;;;;21.65;11.80;;;16.40;99.90;;;;;;5046024;28;20036;-57
2023/06/06 07:35:36;;;;;;;22.23;12.65;;;16.60;99.90;;;;;;5056176;28;20033;-57
2023/06/06 07:38:02;;;;;;;18.88;12.75;;;16.70;99.90;;;;;;5064530;28;20033;-58
2023/06/06 07:40:28;;;;;;;20.52;12.18;;;16.90;99.90;;;;;;5059614;28;20691;-57
2023/06/06 07:42:55;;;;;;;19.52;12.18;;;16.90;99.90;;;;;;5050776;28;20029;-56
2023/06/06 07:45:21;;;;;;;19.67;12.50;;;16.90;99.90;;;;;;5046549;28;20045;-57
2023/06/06 07:47:46;;;;;;;20.23;11.50;;;17.00;99.90;;;;;;5065499;28;20129;-57
2023/06/06 07:50:13;;;;;;;20.15;12.18;;;17.00;99.90;;;;;;5047760;28;20036;-56
2023/06/06 07:52:43;;;;;;;17.75;12.05;;;16.90;99.90;;;;;;5049091;28;20047;-57
2023/06/06 07:55:11;;;;;;;21.10;12.02;;;17.10;99.90;;;;;;5065088;28;20479;-57
2023/06/06 07:57:37;;;;;;;20.25;12.70;;;17.10;99.90;;;;;;5065049;28;20036;-57
2023/06/06 08:00:07;;;;;;;17.50;12.20;;;17.00;99.90;;;;;;5067302;28;20472;-57
2023/06/06 08:02:33;;;;;;;20.05;12.82;;;17.30;99.90;;;;;;5061333;28;20037;-56
2023/06/06 08:04:59;;;;;;;22.00;11.70;;;17.30;99.90;;;;;;5051381;28;20036;-57
2023/06/06 08:07:25;;;;;;;19.05;11.40;;;17.30;99.90;;;;;;5066020;28;20029;-56
2023/06/06 08:09:51;;;;;;;24.98;12.02;;;17.50;99.90;;;;;;5064787;28;20032;-57
2023/06/06 08:12:16;;;;;;;21.02;12.27;;;17.30;99.90;;;;;;5062741;28;20043;-57
2023/06/06 08:14:42;;;;;;;18.40;11.52;;;17.20;99.90;;;;;;5076475;28;20398;-56
2023/06/06 08:17:08;;;;;;;18.52;12.68;;;17.60;99.90;;;;;;5059477;28;20131;-56
2023/06/06 08:19:34;;;;;;;19.83;12.38;;;17.70;99.90;;;;;;5056700;28;20395;-56
2023/06/06 08:22:01;;;;;;;19.05;11.77;;;17.80;99.90;;;;;;5065296;28;20089;-57
2023/06/06 08:24:27;;;;;;;15.65;10.88;;;18.00;99.90;;;;;;5047980;28;20095;-56
2023/06/06 08:26:53;;;;;;;24.77;11.88;;;17.80;99.90;;;;;;5059123;28;20466;-57
2023/06/06 08:29:19;;;;;;;15.80;11.23;;;17.80;99.90;;;;;;5054860;28;20033;-56
2023/06/06 08:31:45;;;;;;;17.80;11.98;;;17.90;99.90;;;;;;5057643;28;20496;-56
2023/06/06 08:34:11;;;;;;;19.90;11.48;;;18.10;99.90;;;;;;5048139;28;20090;-56
2023/06/06 08:36:37;;;;;;;17.70;10.82;;;18.30;99.90;;;;;;5064190;28;20688;-56
2023/06/06 08:39:06;;;;;;;16.20;10.27;;;18.30;99.90;;;;;;5057309;28;20044;-57
2023/06/06 08:41:33;;;;;;;16.60;10.77;;;18.70;99.90;;;;;;5052186;28;20025;-56
2023/06/06 08:44:02;;;;;;;20.52;11.52;;;18.50;99.90;;;;;;5044779;28;20099;-56
2023/06/06 08:46:33;;;;;;;16.05;11.05;;;18.30;99.90;;;;;;5046229;28;20314;-56
2023/06/06 08:49:03;;;;;;;18.45;10.80;;;18.40;99.90;;;;;;5058493;28;20481;-56
2023/06/06 08:51:29;;;;;;;17.63;10.55;;;18.60;99.90;;;;;;5054526;28;20032;-56
2023/06/06 08:53:56;;;;;;;15.15;9.70;;;18.60;99.90;;;;;;5064531;28;20554;-56
2023/06/06 08:56:22;;;;;;;19.85;10.95;;;18.90;99.90;;;;;;5064148;28;20043;-57
2023/06/06 08:58:50;;;;;;;18.27;9.93;;;18.80;99.90;;;;;;5074711;28;20044;-57
2023/06/06 09:01:20;;;;;;;16.25;9.95;;;18.90;99.90;;;;;;5045853;28;20115;-57
2023/06/06 09:03:48;;;;;;;17.10;10.63;;;19.00;99.90;;;;;;5046176;28;20028;-57
2023/06/06 09:06:17;;;;;;;15.13;9.98;;;18.90;99.90;;;;;;5060886;28;20162;-56
2023/06/06 09:08:44;;;;;;;15.75;10.13;;;19.00;99.90;;;;;;5067510;28;20029;-56
2023/06/06 09:11:10;;;;;;;18.35;10.60;;;19.10;99.90;;;;;;5046731;28;20045;-57
2023/06/06 09:13:42;;;;;;;21.27;10.50;;;19.30;99.90;;;;;;5049083;28;20060;-57
2023/06/06 09:16:08;;;;;;;15.38;9.80;;;19.30;99.90;;;;;;5055912;28;20440;-57
2023/06/06 09:18:35;;;;;;;15.88;10.23;;;19.40;99.90;;;;;;5054089;28;20064;-57
2023/06/06 09:21:05;;;;;;;17.52;9.85;;;19.30;99.90;;;;;;5053021;28;20098;-57
2023/06/06 09:23:31;;;;;;;16.45;9.95;;;19.20;99.90;;;;;;5056567;28;20040;-57
2023/06/06 09:25:57;;;;;;;17.70;10.15;;;19.60;99.90;;;;;;5047866;28;20116;-57
2023/06/06 09:28:39;;;;;;;14.48;10.50;;;19.70;99.90;;;;;;5047609;28;20059;-56
2023/06/06 09:31:23;;;;;;;18.40;10.07;;;19.60;99.90;;;;;;5047464;28;20069;-57
2023/06/06 09:33:50;;;;;;;15.30;9.70;;;19.70;99.90;;;;;;5048969;28;20124;-57
2023/06/06 09:36:18;;;;;;;14.02;9.55;;;19.90;99.90;;;;;;5065485;28;20041;-56
2023/06/06 09:38:43;;;;;;;17.75;9.48;;;20.00;99.90;;;;;;5067379;28;20385;-57
2023/06/06 09:41:09;;;;;;;17.95;10.30;;;20.00;99.90;;;;;;5066002;28;20086;-60
2023/06/06 09:43:37;;;;;;;17.33;9.18;;;20.00;99.90;;;;;;5056569;28;20036;-57
2023/06/06 09:46:05;;;;;;;16.63;8.68;;;20.10;99.90;;;;;;5061561;28;20576;-57
2023/06/06 09:48:31;;;;;;;14.60;8.85;;;20.20;99.90;;;;;;5064796;28;20067;-57
2023/06/06 09:50:57;;;;;;;17.45;9.05;;;20.10;99.90;;;;;;5053869;28;20392;-57
2023/06/06 09:53:27;;;;;;;15.13;8.27;;;20.10;99.90;;;;;;5058360;28;20033;-56
2023/06/06 09:55:55;;;;;;;13.35;8.85;;;20.20;99.90;;;;;;5067149;28;20572;-57
2023/06/06 09:58:22;;;;;;;14.30;9.80;;;20.40;99.90;;;;;;5066837;28;20225;-57
2023/06/06 10:00:48;;;;;;;14.25;9.45;;;20.20;99.90;;;;;;5062270;28;20104;-57
2023/06/06 10:03:22;;;;;;;15.48;9.30;;;20.20;99.90;;;;;;5047539;28;20124;-57
2023/06/06 10:05:49;;;;;;;12.40;8.38;;;20.40;99.90;;;;;;5060155;28;20024;-57
2023/06/06 10:08:17;;;;;;;14.10;8.65;;;20.50;99.90;;;;;;5066891;28;20497;-56
2023/06/06 10:10:45;;;;;;;12.20;8.07;;;20.50;99.90;;;;;;5066589;28;20529;-57
2023/06/06 10:13:12;;;;;;;12.13;8.18;;;21.10;99.90;;;;;;5058265;28;20291;-57
2023/06/06 10:15:39;;;;;;;14.10;8.57;;;21.00;99.90;;;;;;5055978;28;20120;-58
2023/06/06 10:18:05;;;;;;;11.82;7.63;;;21.00;99.90;;;;;;5065262;28;20033;-57
2023/06/06 10:20:32;;;;;;;15.27;8.65;;;21.00;99.90;;;;;;5066734;28;20107;-57
2023/06/06 10:23:01;;;;;;;14.43;8.32;;;20.90;99.90;;;;;;5064148;28;20535;-56
2023/06/06 10:25:27;;;;;;;13.40;8.30;;;20.80;99.90;;;;;;5065179;28;20031;-56
2023/06/06 10:28:03;;;;;;;14.43;8.70;;;21.10;99.90;;;;;;5067056;28;20412;-57
2023/06/06 10:30:36;;;;;;;14.73;8.88;;;21.10;99.90;;;;;;5064060;28;20032;-57
2023/06/06 10:33:13;;;;;;;13.90;8.10;;;21.10;99.90;;;;;;5047002;28;20041;-58
2023/06/06 10:35:43;;;;;;;13.38;8.30;;;21.30;99.90;;;;;;5056803;28;20037;-56
2023/06/06 10:38:09;;;;;;;15.52;9.07;;;21.40;99.90;;;;;;5063974;28;20067;-56
2023/06/06 10:40:52;;;;;;;14.18;7.75;;;21.40;99.90;;;;;;5046473;28;20035;-56
2023/06/06 10:43:20;;;;;;;12.93;7.82;;;21.50;99.90;;;;;;5059545;28;20117;-59
2023/06/06 10:45:49;;;;;;;18.73;7.50;;;21.80;99.90;;;;;;5066108;28;20508;-57
2023/06/06 10:48:15;;;;;;;12.00;7.45;;;21.90;99.90;;;;;;5064330;28;20043;-57
2023/06/06 10:50:53;;;;;;;10.48;6.50;;;21.80;99.90;;;;;;5050566;28;20032;-57
2023/06/06 10:53:19;;;;;;;12.23;7.72;;;21.90;99.90;;;;;;5065907;28;20471;-57
2023/06/06 10:55:46;;;;;;;11.52;7.63;;;22.00;99.90;;;;;;5065918;28;20384;-57
2023/06/06 10:58:25;;;;;;;13.48;7.43;;;22.00;99.90;;;;;;5064032;28;20032;-57
2023/06/06 11:00:57;;;;;;;13.00;7.22;;;22.00;99.90;;;;;;5060618;28;20476;-57
2023/06/06 11:03:40;;;;;;;12.27;7.13;;;22.20;99.90;;;;;;5046617;28;20055;-56
2023/06/06 11:06:14;;;;;;;10.98;6.88;;;22.30;99.90;;;;;;5061069;28;20079;-57
2023/06/06 11:08:59;;;;;;;10.18;6.28;;;22.30;99.90;;;;;;5046114;28;20039;-57
2023/06/06 11:11:28;;;;;;;11.43;7.20;;;22.60;99.90;;;;;;5055687;28;20036;-57
2023/06/06 11:14:01;;;;;;;14.73;7.65;;;22.50;99.90;;;;;;5051793;28;20489;-57
2023/06/06 11:16:39;;;;;;;22.10;7.45;;;22.40;99.90;;;;;;5056124;28;20699;-57
2023/06/06 11:19:21;;;;;;;15.25;7.40;;;22.50;99.90;;;;;;5064496;28;20109;-57
2023/06/06 11:21:56;;;;;;;13.68;7.07;;;22.60;99.90;;;;;;5074246;28;20380;-57
2023/06/06 11:24:23;;;;;;;8.98;6.00;;;22.50;99.90;;;;;;5047384;28;20461;-57
2023/06/06 11:26:51;;;;;;;14.18;6.05;;;22.70;99.90;;;;;;5045657;28;20041;-57
2023/06/06 11:29:20;;;;;;;13.70;6.50;;;22.90;99.90;;;;;;5045029;28;20032;-57
2023/06/06 11:31:45;;;;;;;14.88;7.25;;;22.80;99.90;;;;;;5045360;28;20036;-57
2023/06/06 11:34:13;;;;;;;10.65;7.40;;;22.70;99.90;;;;;;5045523;28;20036;-57
2023/06/06 11:36:40;;;;;;;10.95;6.60;;;22.50;99.90;;;;;;5060225;28;20484;-57
2023/06/06 11:39:10;;;;;;;9.57;5.78;;;22.70;99.90;;;;;;5056760;28;20483;-57
2023/06/06 11:41:46;;;;;;;12.82;6.22;;;23.00;99.90;;;;;;5061448;28;20098;-57
2023/06/06 11:44:14;;;;;;;12.65;6.05;;;23.40;99.90;;;;;;5048229;28;20033;-57
2023/06/06 11:46:48;;;;;;;11.60;5.88;;;23.10;99.90;;;;;;5057603;28;20428;-57
2023/06/06 11:49:14;;;;;;;10.13;5.72;;;23.30;99.90;;;;;;5056396;28;20037;-58
2023/06/06 11:51:40;;;;;;;15.55;6.20;;;22.60;99.90;;;;;;5057832;28;20124;-57
2023/06/06 11:54:19;;;;;;;8.88;4.85;;;23.40;99.90;;;;;;5057612;28;20222;-57
2023/06/06 11:56:45;;;;;;;11.32;5.40;;;23.60;99.90;;;;;;5049434;28;20086;-57
2023/06/06 11:59:12;;;;;;;9.32;5.35;;;23.50;99.90;;;;;;5064751;28;20471;-58
2023/06/06 12:01:52;;;;;;;11.13;5.20;;;23.50;99.90;;;;;;5052827;28;20059;-57
2023/06/06 12:04:21;;;;;;;9.35;5.88;;;23.70;99.90;;;;;;5046595;28;20409;-57
2023/06/06 12:06:48;;;;;;;10.48;5.50;;;23.40;99.90;;;;;;5064561;28;20051;-57
2023/06/06 12:09:16;;;;;;;9.18;5.50;;;23.60;99.90;;;;;;5064695;28;20111;-59
2023/06/06 12:12:04;;;;;;;12.20;5.97;;;23.60;99.90;;;;;;5064973;28;20484;-57
2023/06/06 12:14:32;;;;;;;8.77;4.82;;;23.40;99.90;;;;;;5049583;28;20073;-57
2023/06/06 12:17:05;;;;;;;8.60;4.93;;;23.70;99.90;;;;;;5068222;28;20044;-57
2023/06/06 12:19:31;;;;;;;;;;;23.60;99.90;;;;;;5055360;28;20043;-57
2023/06/06 12:21:56;;;;;;;12.40;4.60;;;23.80;99.90;;;;;;5064968;28;19920;-58
2023/06/06 12:24:24;;;;;;;8.63;4.80;;;24.00;99.90;;;;;;5046917;28;20048;-57
2023/06/06 12:26:53;;;;;;;6.30;4.72;;;23.50;99.90;;;;;;5052256;28;20032;-57
2023/06/06 12:29:26;;;;;;;9.00;5.03;;;24.50;99.90;;;;;;5064139;28;20094;-58
2023/06/06 12:32:10;;;;;;;;;;;23.90;99.90;;;;;;5051169;28;20041;-57
2023/06/06 12:34:50;;;;;;;9.02;3.85;;;24.10;99.90;;;;;;5051507;28;19916;-58
2023/06/06 12:37:18;;;;;;;12.32;4.57;;;24.20;99.90;;;;;;5052559;28;20029;-58